createdAt,value
2019-01-19T00:01:16.170Z,3.10
2019-01-19T00:04:18.559Z,3.30
2019-01-19T00:07:27.140Z,3.43
2019-01-19T00:10:26.058Z,4.27
2019-01-19T00:13:23.787Z,3.50
2019-01-19T00:15:58.614Z,3.33
2019-01-19T00:19:11.080Z,3.80
2019-01-19T00:22:17.792Z,4.67
2019-01-19T00:25:00.354Z,3.73
2019-01-19T00:27:45.873Z,3.90
2019-01-19T00:30:43.674Z,3.83
2019-01-19T00:33:53.387Z,4.17
2019-01-19T00:36:34.778Z,3.80
2019-01-19T00:39:27.722Z,4.00
2019-01-19T00:42:55.355Z,4.47
2019-01-19T00:45:48.768Z,4.30
2019-01-19T00:48:56.393Z,5.10
2019-01-19T00:52:20.567Z,4.87
2019-01-19T00:55:21.901Z,4.87
2019-01-19T00:58:15.639Z,4.90
2019-01-19T01:00:47.670Z,4.87
2019-01-19T01:03:29.879Z,4.53
2019-01-19T01:06:24.179Z,4.67
2019-01-19T01:09:28.936Z,4.20
2019-01-19T01:12:35.522Z,3.80
2019-01-19T01:15:35.025Z,3.53
2019-01-19T01:18:42.723Z,3.50
2019-01-19T01:21:50.634Z,4.37
2019-01-19T01:24:33.858Z,3.73
2019-01-19T01:27:36.375Z,3.58
2019-01-19T01:30:36.115Z,4.50
2019-01-19T01:33:42.998Z,5.13
2019-01-19T01:36:41.550Z,4.77
2019-01-19T01:39:49.307Z,4.43
2019-01-19T01:42:45.380Z,3.83
2019-01-19T01:46:12.646Z,4.63
2019-01-19T01:48:53.018Z,4.20
2019-01-19T01:52:08.223Z,4.22
2019-01-19T01:55:15.315Z,4.63
2019-01-19T01:58:23.430Z,3.72
2019-01-19T02:01:08.256Z,3.87
2019-01-19T02:04:16.404Z,4.40
2019-01-19T02:07:40.946Z,4.55
2019-01-19T02:10:48.294Z,4.10
2019-01-19T02:13:35.002Z,4.20
2019-01-19T02:17:05.410Z,4.93
2019-01-19T02:20:01.172Z,4.00
2019-01-19T02:23:00.319Z,4.05
2019-01-19T02:26:05.787Z,5.05
2019-01-19T02:29:10.890Z,3.67
2019-01-19T02:32:41.206Z,3.62
2019-01-19T02:35:48.677Z,4.15
2019-01-19T02:39:09.016Z,4.30
2019-01-19T02:42:16.670Z,4.27
2019-01-19T02:45:26.198Z,4.65
2019-01-19T02:48:34.668Z,4.67
2019-01-19T02:51:17.026Z,5.00
2019-01-19T02:54:18.863Z,4.63
2019-01-19T02:57:41.702Z,5.10
2019-01-19T03:00:53.158Z,5.40
2019-01-19T03:04:03.605Z,5.00
2019-01-19T03:06:59.842Z,4.50
2019-01-19T03:09:54.666Z,4.60
2019-01-19T03:13:08.711Z,4.75
2019-01-19T03:16:35.944Z,4.20
2019-01-19T03:20:03.131Z,4.50
2019-01-19T03:23:04.235Z,4.30
2019-01-19T03:25:52.474Z,4.90
2019-01-19T03:29:04.090Z,4.75
2019-01-19T03:32:19.494Z,4.60
2019-01-19T03:35:19.147Z,5.20
2019-01-19T03:38:27.030Z,4.50
2019-01-19T03:41:39.554Z,4.47
2019-01-19T03:44:44.071Z,4.10
2019-01-19T03:47:59.102Z,4.77
2019-01-19T03:50:44.510Z,4.10
2019-01-19T03:53:38.318Z,3.63
2019-01-19T03:56:21.223Z,4.20
2019-01-19T03:59:05.706Z,4.43
2019-01-19T04:02:13.303Z,4.45
2019-01-19T04:05:28.190Z,4.92
2019-01-19T04:08:42.323Z,5.17
2019-01-19T04:12:06.511Z,4.10
2019-01-19T04:15:11.043Z,3.73
2019-01-19T04:18:03.026Z,3.72
2019-01-19T04:21:08.355Z,4.50
2019-01-19T04:23:36.314Z,3.75
2019-01-19T04:26:34.772Z,4.17
2019-01-19T04:29:02.662Z,3.90
2019-01-19T04:31:30.200Z,3.77
2019-01-19T04:33:58.044Z,3.27
2019-01-19T04:36:25.949Z,3.62
2019-01-19T04:38:54.011Z,3.12
2019-01-19T04:41:21.513Z,3.40
2019-01-19T04:43:48.972Z,3.52
2019-01-19T04:46:17.003Z,3.52
2019-01-19T04:48:44.992Z,3.37
2019-01-19T04:51:12.788Z,4.00
2019-01-19T04:53:40.368Z,3.90
2019-01-19T04:56:07.986Z,2.95
2019-01-19T04:58:35.547Z,3.60
2019-01-19T05:01:03.494Z,3.77
2019-01-19T05:03:31.471Z,3.45
2019-01-19T05:05:59.119Z,3.70
2019-01-19T05:08:26.910Z,3.37
2019-01-19T05:10:54.731Z,3.40
2019-01-19T05:13:22.539Z,3.80
2019-01-19T05:15:50.155Z,4.03
2019-01-19T05:18:18.252Z,3.30
2019-01-19T05:20:46.851Z,3.63
2019-01-19T05:23:14.931Z,3.40
2019-01-19T05:25:42.717Z,3.27
2019-01-19T05:28:10.590Z,3.20
2019-01-19T05:30:38.730Z,4.53
2019-01-19T05:33:06.640Z,3.40
2019-01-19T05:35:34.082Z,3.83
2019-01-19T05:38:02.073Z,3.90
2019-01-19T05:40:29.947Z,4.00
2019-01-19T05:42:57.531Z,3.53
2019-01-19T05:45:25.547Z,4.10
2019-01-19T05:47:53.359Z,3.90
2019-01-19T05:50:21.808Z,5.27
2019-01-19T05:52:49.819Z,3.47
2019-01-19T05:55:17.565Z,4.60
2019-01-19T05:57:45.389Z,4.28
2019-01-19T06:00:22.714Z,3.73
2019-01-19T06:02:51.242Z,3.90
2019-01-19T06:05:19.550Z,3.62
2019-01-19T06:07:47.555Z,5.47
2019-01-19T06:10:15.672Z,6.00
2019-01-19T06:12:43.227Z,5.05
2019-01-19T06:15:12.266Z,6.80
2019-01-19T06:17:40.067Z,5.50
2019-01-19T06:20:08.855Z,4.17
2019-01-19T06:22:36.763Z,4.60
2019-01-19T06:25:04.888Z,3.90
2019-01-19T06:27:32.819Z,4.33
2019-01-19T06:30:00.369Z,3.98
2019-01-19T06:32:28.098Z,4.55
2019-01-19T06:34:56.002Z,4.03
2019-01-19T06:37:23.494Z,3.62
2019-01-19T06:39:51.527Z,4.10
2019-01-19T06:42:19.442Z,4.42
2019-01-19T06:44:47.284Z,3.80
2019-01-19T06:47:14.811Z,3.90
2019-01-19T06:49:42.930Z,3.72
2019-01-19T06:52:11.133Z,3.92
2019-01-19T06:54:39.642Z,4.40
2019-01-19T06:57:07.258Z,4.42
2019-01-19T06:59:34.730Z,4.05
2019-01-19T07:02:02.780Z,4.90
2019-01-19T07:04:30.318Z,5.40
2019-01-19T07:07:02.527Z,4.80
2019-01-19T07:09:28.293Z,7.10
2019-01-19T07:11:56.118Z,6.55
2019-01-19T07:14:23.966Z,4.72
2019-01-19T07:16:51.472Z,5.62
2019-01-19T07:19:19.019Z,4.80
2019-01-19T07:21:46.930Z,4.90
2019-01-19T07:24:14.534Z,4.42
2019-01-19T07:26:42.154Z,4.90
2019-01-19T07:29:09.718Z,8.10
2019-01-19T07:31:37.610Z,8.33
2019-01-19T07:34:05.183Z,6.87
2019-01-19T07:36:33.234Z,6.57
2019-01-19T07:39:00.831Z,6.00
2019-01-19T07:41:29.037Z,5.65
2019-01-19T07:43:56.778Z,6.53
2019-01-19T07:46:25.074Z,6.87
2019-01-19T07:48:52.980Z,8.65
2019-01-19T07:51:20.780Z,6.33
2019-01-19T07:53:48.640Z,8.20
2019-01-19T07:56:16.569Z,7.65
2019-01-19T07:58:44.477Z,9.48
2019-01-19T08:01:12.108Z,9.08
2019-01-19T08:03:39.986Z,10.35
2019-01-19T08:06:07.582Z,9.05
2019-01-19T08:08:35.504Z,7.45
2019-01-19T08:11:03.531Z,6.35
2019-01-19T08:13:31.037Z,6.07
2019-01-19T08:15:59.206Z,6.20
2019-01-19T08:18:26.672Z,7.40
2019-01-19T08:20:54.196Z,6.73
2019-01-19T08:23:21.830Z,8.20
2019-01-19T08:25:49.860Z,9.43
2019-01-19T08:28:18.090Z,8.83
2019-01-19T08:30:45.852Z,8.13
2019-01-19T08:33:13.717Z,9.63
2019-01-19T08:35:42.859Z,10.20
2019-01-19T08:38:10.449Z,10.30
2019-01-19T08:40:38.368Z,9.67
2019-01-19T08:43:28.398Z,8.77
2019-01-19T08:45:56.282Z,8.30
2019-01-19T08:48:24.245Z,10.33
2019-01-19T08:50:52.598Z,9.77
2019-01-19T08:53:20.691Z,11.13
2019-01-19T08:55:48.471Z,9.60
2019-01-19T08:58:17.991Z,8.70
2019-01-19T09:00:45.578Z,8.10
2019-01-19T09:03:13.062Z,9.97
2019-01-19T09:05:40.905Z,8.33
2019-01-19T09:08:08.414Z,8.57
2019-01-19T09:10:36.767Z,8.93
2019-01-19T09:13:04.428Z,9.37
2019-01-19T09:15:32.267Z,8.50
2019-01-19T09:18:00.531Z,8.03
2019-01-19T09:20:28.190Z,7.07
2019-01-19T09:23:13.996Z,7.83
2019-01-19T09:25:41.762Z,7.57
2019-01-19T09:28:09.567Z,7.20
2019-01-19T09:30:37.158Z,8.20
2019-01-19T09:33:05.200Z,6.70
2019-01-19T09:35:33.115Z,6.80
2019-01-19T09:38:00.870Z,7.50
2019-01-19T09:40:29.046Z,8.33
2019-01-19T09:42:56.699Z,8.97
2019-01-19T09:45:24.330Z,7.63
2019-01-19T09:47:52.168Z,6.83
2019-01-19T09:50:20.219Z,7.40
2019-01-19T09:52:48.025Z,7.40
2019-01-19T09:55:15.715Z,7.20
2019-01-19T09:57:43.334Z,6.90
2019-01-19T10:00:13.684Z,6.70
2019-01-19T10:02:41.264Z,7.77
2019-01-19T10:05:12.574Z,9.67
2019-01-19T10:07:40.039Z,7.47
2019-01-19T10:10:09.218Z,9.80
2019-01-19T10:12:36.730Z,6.80
2019-01-19T10:15:06.094Z,7.23
2019-01-19T10:17:33.914Z,8.80
2019-01-19T10:20:01.422Z,7.60
2019-01-19T10:22:29.186Z,8.40
2019-01-19T10:24:57.159Z,7.50
2019-01-19T10:27:24.818Z,7.70
2019-01-19T10:29:52.721Z,6.60
2019-01-19T10:32:20.767Z,5.90
2019-01-19T10:34:48.563Z,7.20
2019-01-19T10:37:16.003Z,5.60
2019-01-19T10:39:43.446Z,4.53
2019-01-19T10:42:11.567Z,5.00
2019-01-19T10:44:39.415Z,4.30
2019-01-19T10:47:07.759Z,4.20
2019-01-19T10:49:35.350Z,4.40
2019-01-19T10:52:02.791Z,4.47
2019-01-19T10:54:30.374Z,4.53
2019-01-19T10:56:58.218Z,5.43
2019-01-19T10:59:28.295Z,5.03
2019-01-19T11:01:56.320Z,5.90
2019-01-19T11:04:24.656Z,4.73
2019-01-19T11:06:52.482Z,3.80
2019-01-19T11:09:20.339Z,3.90
2019-01-19T11:11:48.198Z,3.67
2019-01-19T11:14:15.685Z,3.97
2019-01-19T11:16:43.485Z,4.40
2019-01-19T11:19:11.482Z,3.97
2019-01-19T11:21:39.334Z,3.83
2019-01-19T11:24:07.106Z,4.30
2019-01-19T11:26:35.107Z,3.20
2019-01-19T11:29:03.092Z,4.10
2019-01-19T11:31:31.216Z,4.50
2019-01-19T11:33:58.735Z,4.40
2019-01-19T11:36:26.638Z,4.40
2019-01-19T11:38:54.535Z,5.30
2019-01-19T11:41:22.011Z,3.73
2019-01-19T11:43:49.906Z,4.67
2019-01-19T11:46:17.534Z,4.10
2019-01-19T11:48:45.041Z,4.80
2019-01-19T11:51:12.931Z,5.30
2019-01-19T11:53:41.114Z,5.60
2019-01-19T11:56:12.309Z,5.50
2019-01-19T11:58:38.369Z,5.50
2019-01-19T12:01:07.258Z,5.07
2019-01-19T12:03:34.880Z,5.33
2019-01-19T12:06:03.126Z,5.07
2019-01-19T12:08:31.054Z,5.27
2019-01-19T12:10:58.639Z,4.43
2019-01-19T12:13:26.171Z,4.77
2019-01-19T12:15:54.283Z,5.13
2019-01-19T12:18:22.216Z,5.37
2019-01-19T12:20:50.708Z,5.40
2019-01-19T12:23:18.357Z,4.27
2019-01-19T12:25:45.938Z,5.37
2019-01-19T12:28:13.698Z,5.30
2019-01-19T12:30:41.618Z,5.10
2019-01-19T12:33:09.209Z,5.70
2019-01-19T12:35:37.100Z,5.93
2019-01-19T12:38:05.383Z,5.27
2019-01-19T12:40:33.358Z,7.33
2019-01-19T12:43:06.799Z,6.60
2019-01-19T12:45:37.630Z,5.30
2019-01-19T12:48:05.399Z,6.13
2019-01-19T12:50:32.926Z,6.43
2019-01-19T12:53:00.614Z,5.30
2019-01-19T12:55:28.422Z,5.47
2019-01-19T12:57:56.008Z,5.83
2019-01-19T13:00:24.692Z,6.03
2019-01-19T13:02:52.470Z,5.37
2019-01-19T13:05:33.098Z,4.63
2019-01-19T13:08:00.947Z,5.10
2019-01-19T13:10:35.227Z,6.47
2019-01-19T13:13:17.738Z,5.10
2019-01-19T13:16:22.934Z,5.50
2019-01-19T13:19:21.553Z,6.07
2019-01-19T13:22:35.427Z,5.20
2019-01-19T13:25:41.445Z,5.50
2019-01-19T13:28:42.732Z,5.90
2019-01-19T13:31:37.998Z,5.60
2019-01-19T13:34:43.015Z,5.80
2019-01-19T13:37:27.422Z,5.07
2019-01-19T13:40:30.828Z,5.83
2019-01-19T13:43:29.966Z,5.67
2019-01-19T13:46:17.184Z,5.87
2019-01-19T13:49:24.578Z,5.67
2019-01-19T13:52:16.464Z,6.40
2019-01-19T13:55:31.919Z,5.70
2019-01-19T13:58:05.577Z,5.83
2019-01-19T14:01:27.039Z,6.83
2019-01-19T14:04:21.275Z,5.63
2019-01-19T14:07:26.779Z,7.00
2019-01-19T14:10:29.134Z,6.07
2019-01-19T14:13:23.419Z,6.47
2019-01-19T14:16:18.898Z,4.90
2019-01-19T14:19:12.827Z,5.20
2019-01-19T14:22:11.950Z,7.27
2019-01-19T14:25:19.562Z,10.33
2019-01-19T14:28:13.698Z,9.63
2019-01-19T14:31:08.553Z,10.10
2019-01-19T14:34:35.490Z,10.70
2019-01-19T14:37:28.659Z,9.37
2019-01-19T14:40:26.986Z,11.20
2019-01-19T14:43:36.470Z,9.57
2019-01-19T14:46:54.879Z,10.30
2019-01-19T14:50:07.318Z,11.13
2019-01-19T14:53:21.020Z,10.50
2019-01-19T14:56:35.524Z,11.20
2019-01-19T14:59:59.726Z,9.90
2019-01-19T15:03:16.303Z,10.53
2019-01-19T15:06:31.882Z,11.43
2019-01-19T15:09:17.089Z,11.37
2019-01-19T15:12:23.155Z,11.60
2019-01-19T15:15:36.875Z,12.13
2019-01-19T15:18:49.180Z,15.20
2019-01-19T15:22:00.102Z,12.80
2019-01-19T15:24:40.261Z,11.33
2019-01-19T15:27:38.524Z,12.53
2019-01-19T15:30:38.910Z,12.07
2019-01-19T15:34:03.087Z,12.82
2019-01-19T15:37:16.045Z,12.55
2019-01-19T15:40:18.233Z,11.03
2019-01-19T15:43:16.997Z,11.53
2019-01-19T15:46:15.261Z,11.03
2019-01-19T15:49:23.446Z,11.00
2019-01-19T15:52:20.646Z,11.12
2019-01-19T15:55:15.936Z,11.70
2019-01-19T15:58:25.082Z,11.25
2019-01-19T16:01:46.108Z,11.35
2019-01-19T16:04:51.635Z,11.80
2019-01-19T16:07:55.040Z,11.90
2019-01-19T16:11:01.884Z,12.15
2019-01-19T16:13:55.687Z,13.15
2019-01-19T16:17:07.535Z,13.08
2019-01-19T16:20:11.917Z,11.70
2019-01-19T16:23:17.380Z,12.90
2019-01-19T16:26:25.458Z,10.80
2019-01-19T16:29:30.228Z,11.90
2019-01-19T16:32:35.177Z,11.68
2019-01-19T16:35:43.706Z,12.40
2019-01-19T16:38:44.000Z,12.43
2019-01-19T16:41:48.739Z,11.22
2019-01-19T16:44:42.620Z,11.75
2019-01-19T16:47:40.484Z,11.15
2019-01-19T16:51:03.832Z,14.03
2019-01-19T16:54:17.371Z,11.37
2019-01-19T16:57:11.458Z,12.70
2019-01-19T17:00:25.414Z,13.80
2019-01-19T17:03:38.632Z,13.60
2019-01-19T17:06:43.757Z,12.40
2019-01-19T17:09:39.899Z,14.78
2019-01-19T17:12:52.468Z,15.88
2019-01-19T17:15:58.314Z,14.80
2019-01-19T17:19:07.850Z,13.95
2019-01-19T17:22:29.012Z,34.20
2019-01-19T17:25:36.984Z,16.02
2019-01-19T17:28:33.025Z,13.65
2019-01-19T17:31:42.986Z,26.87
2019-01-19T17:34:46.882Z,28.30
2019-01-19T17:37:32.427Z,24.67
2019-01-19T17:40:31.118Z,15.03
2019-01-19T17:43:52.732Z,13.65
2019-01-19T17:47:10.998Z,27.50
2019-01-19T17:50:07.832Z,15.50
2019-01-19T17:53:24.107Z,12.95
2019-01-19T17:56:23.042Z,16.05
2019-01-19T17:59:54.224Z,16.55
2019-01-19T18:03:17.254Z,15.90
2019-01-19T18:06:26.121Z,25.48
2019-01-19T18:09:38.467Z,14.83
2019-01-19T18:12:58.434Z,15.38
2019-01-19T18:16:14.539Z,12.75
2019-01-19T18:19:12.325Z,14.63
2019-01-19T18:22:31.179Z,13.80
2019-01-19T18:25:17.362Z,13.55
2019-01-19T18:28:09.864Z,15.53
2019-01-19T18:31:09.166Z,13.98
2019-01-19T18:34:02.049Z,15.50
2019-01-19T18:36:54.899Z,13.80
2019-01-19T18:40:04.281Z,13.60
2019-01-19T18:43:05.379Z,15.45
2019-01-19T18:46:07.336Z,14.03
2019-01-19T18:49:07.548Z,14.83
2019-01-19T18:52:12.761Z,15.58
2019-01-19T18:55:31.739Z,14.47
2019-01-19T18:58:24.392Z,14.98
2019-01-19T19:01:26.300Z,15.75
2019-01-19T19:04:50.695Z,14.93
2019-01-19T19:07:34.577Z,14.50
2019-01-19T19:10:38.567Z,15.78
2019-01-19T19:13:46.559Z,19.12
2019-01-19T19:16:51.595Z,18.67
2019-01-19T19:19:48.232Z,18.82
2019-01-19T19:22:50.116Z,15.72
2019-01-19T19:25:46.362Z,16.70
2019-01-19T19:28:47.717Z,16.80
2019-01-19T19:31:57.271Z,18.05
2019-01-19T19:35:00.575Z,18.02
2019-01-19T19:38:13.043Z,15.95
2019-01-19T19:41:16.838Z,16.45
2019-01-19T19:44:25.898Z,18.25
2019-01-19T19:47:38.286Z,18.90
2019-01-19T19:50:39.785Z,19.15
2019-01-19T19:53:07.391Z,18.92
2019-01-19T19:55:33.853Z,19.93
2019-01-19T19:58:01.662Z,20.23
2019-01-19T20:00:29.452Z,22.58
2019-01-19T20:02:57.431Z,22.32
2019-01-19T20:05:25.183Z,19.87
2019-01-19T20:07:53.167Z,20.15
2019-01-19T20:10:20.980Z,19.07
2019-01-19T20:12:49.573Z,18.70
2019-01-19T20:15:17.574Z,17.20
2019-01-19T20:17:45.261Z,18.52
2019-01-19T20:20:13.015Z,18.30
2019-01-19T20:22:41.043Z,18.77
2019-01-19T20:25:09.728Z,16.00
2019-01-19T20:27:37.439Z,17.05
2019-01-19T20:30:06.755Z,13.40
2019-01-19T20:32:34.719Z,16.90
2019-01-19T20:35:03.053Z,15.63
2019-01-19T20:37:31.014Z,17.40
2019-01-19T20:39:58.649Z,16.90
2019-01-19T20:42:26.337Z,17.52
2019-01-19T20:44:54.391Z,21.20
2019-01-19T20:47:22.456Z,19.70
2019-01-19T20:49:50.321Z,17.00
2019-01-19T20:52:18.309Z,17.95
2019-01-19T20:54:46.310Z,18.55
2019-01-19T20:57:14.778Z,17.27
2019-01-19T20:59:42.820Z,16.85
2019-01-19T21:02:10.468Z,16.30
2019-01-19T21:04:38.714Z,16.37
2019-01-19T21:07:06.370Z,16.35
2019-01-19T21:09:34.611Z,17.10
2019-01-19T21:12:02.367Z,15.88
2019-01-19T21:14:30.232Z,13.70
2019-01-19T21:16:57.919Z,15.27
2019-01-19T21:19:25.547Z,15.30
2019-01-19T21:21:53.583Z,16.82
2019-01-19T21:24:21.484Z,16.00
2019-01-19T21:26:49.796Z,17.32
2019-01-19T21:29:18.314Z,15.40
2019-01-19T21:31:45.966Z,15.13
2019-01-19T21:34:13.970Z,16.55
2019-01-19T21:36:42.024Z,16.25
2019-01-19T21:39:09.675Z,15.40
2019-01-19T21:41:37.644Z,14.73
2019-01-19T21:44:05.815Z,15.30
2019-01-19T21:46:33.343Z,15.95
2019-01-19T21:49:01.495Z,16.12
2019-01-19T21:51:29.114Z,15.88
2019-01-19T21:53:57.580Z,15.25
2019-01-19T21:56:25.498Z,14.80
2019-01-19T21:58:53.349Z,15.72
2019-01-19T22:01:21.548Z,14.78
2019-01-19T22:03:49.222Z,17.48
2019-01-19T22:06:17.157Z,17.42
2019-01-19T22:08:45.710Z,15.53
2019-01-19T22:11:13.530Z,13.15
2019-01-19T22:13:41.608Z,14.93
2019-01-19T22:16:09.530Z,13.68
2019-01-19T22:18:37.245Z,15.75
2019-01-19T22:21:05.146Z,15.95
2019-01-19T22:23:32.684Z,15.50
2019-01-19T22:26:00.338Z,15.85
2019-01-19T22:28:27.935Z,14.47
2019-01-19T22:30:55.482Z,18.30
2019-01-19T22:33:23.463Z,17.62
2019-01-19T22:35:51.043Z,16.02
2019-01-19T22:38:18.574Z,16.10
2019-01-19T22:40:46.147Z,14.68
2019-01-19T22:43:18.114Z,18.10
2019-01-19T22:45:45.913Z,14.80
2019-01-19T22:48:13.578Z,16.27
2019-01-19T22:50:41.079Z,16.70
2019-01-19T22:53:08.987Z,17.05
2019-01-19T22:55:37.360Z,15.63
2019-01-19T22:58:05.131Z,16.05
2019-01-19T23:01:17.498Z,17.82
2019-01-19T23:03:45.498Z,15.03
2019-01-19T23:06:13.398Z,16.15
2019-01-19T23:08:41.303Z,17.95
2019-01-19T23:11:08.912Z,16.60
2019-01-19T23:13:36.611Z,19.27
2019-01-19T23:16:05.021Z,22.55
2019-01-19T23:18:32.631Z,21.30
2019-01-19T23:21:00.247Z,21.20
2019-01-19T23:23:28.158Z,19.27
2019-01-19T23:25:56.818Z,19.75
2019-01-19T23:28:24.779Z,17.60
2019-01-19T23:30:52.688Z,18.63
2019-01-19T23:33:20.320Z,16.23
2019-01-19T23:35:48.203Z,18.27
2019-01-19T23:38:16.362Z,16.97
2019-01-19T23:40:44.242Z,18.00
2019-01-19T23:43:11.816Z,15.85
2019-01-19T23:45:39.795Z,16.62
2019-01-19T23:48:07.425Z,18.62
2019-01-19T23:50:35.592Z,16.50
2019-01-19T23:53:03.734Z,16.25
2019-01-19T23:55:31.693Z,16.45
2019-01-19T23:57:59.530Z,17.32
